Time;durP1;ratioP1;P1;durP2;ratioP2;P2;SDS_P1;SDS_P2;PMS_P1;PMS_P2;Temp;Humidity;BMP_temperature;BMP_pressure;BME280_temperature;BME280_humidity;BME280_pressure;Samples;Min_cycle;Max_cycle;Signal;HPM_P1;HPM_P2
2022/07/25 00:01:48;;;;;;;11.10;9.98;;;;;;;23.21;58.62;93548.88;5072156;28;20016;-39
2022/07/25 00:04:13;;;;;;;12.15;9.45;;;;;;;23.20;59.17;93543.88;5072158;28;20044;-40
2022/07/25 00:06:40;;;;;;;11.63;10.23;;;;;;;23.30;58.60;93544.38;5072356;28;20013;-40
2022/07/25 00:09:06;;;;;;;11.48;9.32;;;;;;;23.40;58.23;93544.88;5072273;28;20028;-40
2022/07/25 00:11:31;;;;;;;9.57;8.43;;;;;;;23.39;58.31;93543.41;5070634;28;20069;-40
2022/07/25 00:13:57;;;;;;;11.35;9.23;;;;;;;23.15;59.11;93539.41;5072170;28;20471;-39
2022/07/25 00:16:22;;;;;;;13.95;9.68;;;;;;;22.99;59.82;93544.25;5072328;28;20020;-39
2022/07/25 00:18:47;;;;;;;10.75;9.57;;;;;;;22.94;59.42;93546.13;5072569;28;20023;-39
2022/07/25 00:21:13;;;;;;;12.82;9.35;;;;;;;23.12;58.99;93538.59;5072191;28;20418;-39
2022/07/25 00:23:38;;;;;;;11.43;8.50;;;;;;;23.03;60.25;93536.72;5071844;28;20017;-39
2022/07/25 00:26:04;;;;;;;10.32;8.90;;;;;;;23.05;59.74;93536.09;5071666;28;20020;-38
2022/07/25 00:28:29;;;;;;;11.93;10.15;;;;;;;22.92;60.33;93534.03;5071725;28;20013;-39
2022/07/25 00:30:56;;;;;;;10.30;9.07;;;;;;;22.97;60.38;93518.78;5071597;28;20033;-39
2022/07/25 00:33:21;;;;;;;11.02;9.60;;;;;;;22.92;60.82;93525.56;5069085;28;20027;-39
2022/07/25 00:35:48;;;;;;;12.02;9.07;;;;;;;22.79;60.78;93529.16;5071093;28;20020;-39
2022/07/25 00:38:14;;;;;;;9.45;8.45;;;;;;;22.77;61.34;93526.22;5069638;28;20047;-41
2022/07/25 00:40:39;;;;;;;11.10;9.45;;;;;;;22.76;61.34;93528.31;5071889;28;20407;-40
2022/07/25 00:43:05;;;;;;;11.38;8.80;;;;;;;22.74;61.68;93525.41;5071556;28;20078;-39
2022/07/25 00:45:30;;;;;;;10.35;8.57;;;;;;;22.72;61.48;93528.13;5071285;28;20025;-39
2022/07/25 00:47:56;;;;;;;10.55;9.55;;;;;;;22.64;61.64;93522.09;5071194;28;20020;-39
2022/07/25 00:50:21;;;;;;;9.38;8.43;;;;;;;22.54;62.08;93519.44;5071423;28;20051;-40
2022/07/25 00:52:47;;;;;;;12.27;9.27;;;;;;;22.43;62.64;93520.31;5071254;28;20024;-37
2022/07/25 00:55:13;;;;;;;12.65;9.68;;;;;;;22.19;62.66;93505.00;5052869;28;20020;-37
2022/07/25 00:57:38;;;;;;;11.93;10.02;;;;;;;22.28;62.80;93518.13;5053720;28;20028;-37
2022/07/25 01:00:06;;;;;;;21.13;9.38;;;;;;;22.27;63.10;93524.34;5071543;28;20477;-37
2022/07/25 01:02:32;;;;;;;12.93;9.73;;;;;;;22.22;62.98;93522.72;5071195;28;20031;-37
2022/07/25 01:04:57;;;;;;;14.60;9.38;;;;;;;22.27;62.72;93518.72;5071080;28;20033;-37
2022/07/25 01:07:24;;;;;;;16.73;8.90;;;;;;;22.32;62.65;93523.22;5071355;28;20059;-37
2022/07/25 01:09:49;;;;;;;14.45;10.23;;;;;;;22.25;63.05;93519.38;5053317;28;20103;-37
2022/07/25 01:12:15;;;;;;;10.63;9.27;;;;;;;22.18;63.04;93525.28;5071247;28;20478;-40
2022/07/25 01:14:40;;;;;;;9.35;8.35;;;;;;;22.31;62.31;93525.28;5071169;28;20574;-43
2022/07/25 01:17:06;;;;;;;11.52;10.05;;;;;;;22.31;62.88;93525.28;5070880;28;20401;-40
2022/07/25 01:19:31;;;;;;;9.73;8.75;;;;;;;22.41;61.86;93525.84;5070681;28;20063;-41
2022/07/25 01:21:56;;;;;;;11.27;9.85;;;;;;;22.32;63.29;93526.78;5070401;28;20032;-40
2022/07/25 01:24:22;;;;;;;10.60;9.50;;;;;;;22.31;62.56;93522.47;5070264;28;20027;-41
2022/07/25 01:26:47;;;;;;;10.45;9.35;;;;;;;22.14;63.60;93516.63;5068261;28;20020;-41
2022/07/25 01:29:13;;;;;;;11.95;10.23;;;;;;;21.87;64.29;93515.25;5069273;28;20031;-41
2022/07/25 01:31:38;;;;;;;11.55;10.23;;;;;;;21.76;64.77;93515.31;5070235;28;20032;-40
2022/07/25 01:34:03;;;;;;;12.80;9.93;;;;;;;21.77;64.47;93511.88;5070698;28;20036;-40
2022/07/25 01:36:29;;;;;;;11.73;10.10;;;;;;;21.77;64.80;93511.16;5068106;28;20020;-42
2022/07/25 01:38:54;;;;;;;10.55;9.45;;;;;;;21.63;65.25;93504.78;5070525;28;20031;-41
2022/07/25 01:41:20;;;;;;;10.82;9.60;;;;;;;21.79;64.78;93506.38;5069864;28;20032;-41
2022/07/25 01:43:45;;;;;;;9.90;8.90;;;;;;;21.58;65.26;93514.31;5070439;28;20059;-42
2022/07/25 01:46:11;;;;;;;10.48;9.48;;;;;;;21.61;65.40;93505.38;5070949;28;20074;-43
2022/07/25 01:48:36;;;;;;;12.27;9.82;;;;;;;21.72;64.58;93506.69;5070852;28;20025;-40
2022/07/25 01:51:02;;;;;;;11.20;10.00;;;;;;;21.73;64.24;93506.03;5053033;28;20513;-40
2022/07/25 01:53:27;;;;;;;14.65;9.95;;;;;;;21.83;64.35;93511.50;5070807;28;20502;-40
2022/07/25 01:55:53;;;;;;;11.77;10.55;;;;;;;21.79;64.73;93514.06;5070281;28;20036;-40
2022/07/25 01:58:18;;;;;;;11.10;9.98;;;;;;;21.59;65.04;93513.00;5070454;28;20028;-40
2022/07/25 02:00:43;;;;;;;13.75;9.80;;;;;;;21.53;65.36;93516.19;5070380;28;20021;-41
2022/07/25 02:06:07;;;;;;;13.60;9.70;;;;;;;21.41;65.60;93509.91;5025731;28;20102;-40
2022/07/25 02:08:33;;;;;;;11.25;10.13;;;;;;;21.37;65.87;93506.16;5070251;28;20032;-39
2022/07/25 02:10:59;;;;;;;12.23;10.85;;;;;;;21.32;66.56;93507.28;5070596;28;20020;-39
2022/07/25 02:13:24;;;;;;;12.82;10.63;;;;;;;21.46;66.16;93500.34;5070286;28;20528;-39
2022/07/25 02:15:50;;;;;;;11.75;10.48;;;;;;;21.27;66.38;93500.69;5070238;28;20077;-40
2022/07/25 02:18:16;;;;;;;12.93;10.77;;;;;;;21.15;67.17;93502.84;5070426;28;20035;-40
2022/07/25 02:20:41;;;;;;;15.93;10.57;;;;;;;21.17;66.52;93505.03;5070140;28;20036;-40
2022/07/25 02:23:07;;;;;;;12.05;10.82;;;;;;;21.01;66.92;93499.94;5070099;28;20036;-39
2022/07/25 02:25:33;;;;;;;11.65;10.07;;;;;;;20.98;67.06;93503.25;5070102;28;20046;-40
2022/07/25 02:27:59;;;;;;;12.93;11.38;;;;;;;20.91;67.41;93502.19;5070242;28;20028;-39
2022/07/25 02:30:25;;;;;;;12.32;11.02;;;;;;;20.79;67.77;93500.78;5070083;28;20490;-40
2022/07/25 02:32:51;;;;;;;12.93;11.57;;;;;;;20.57;68.42;93497.41;5070045;28;20115;-40
2022/07/25 02:35:16;;;;;;;13.70;11.25;;;;;;;20.73;68.01;93481.50;5070337;28;20060;-39
2022/07/25 02:37:41;;;;;;;20.17;11.30;;;;;;;20.58;68.98;93493.25;5069878;28;20107;-39
2022/07/25 02:40:07;;;;;;;12.25;10.57;;;;;;;20.76;68.29;93499.19;5069964;28;20032;-39
2022/07/25 02:42:33;;;;;;;12.95;10.45;;;;;;;20.87;67.52;93496.34;5070233;28;20024;-39
2022/07/25 02:44:58;;;;;;;12.88;11.15;;;;;;;20.95;67.14;93488.38;5069904;28;20090;-39
2022/07/25 02:47:24;;;;;;;16.05;11.57;;;;;;;20.90;67.40;93486.69;5070174;28;20024;-39
2022/07/25 02:49:49;;;;;;;12.90;11.20;;;;;;;20.92;67.48;93484.00;5070196;28;20028;-39
2022/07/25 02:52:15;;;;;;;12.20;10.60;;;;;;;20.79;68.03;93490.25;5069801;28;20032;-40
2022/07/25 02:54:41;;;;;;;14.55;10.57;;;;;;;20.80;67.66;93491.00;5069776;28;20021;-41
2022/07/25 02:57:06;;;;;;;13.52;11.05;;;;;;;20.60;68.25;93498.97;5069637;28;20032;-41
2022/07/25 02:59:31;;;;;;;13.70;10.73;;;;;;;20.59;68.29;93496.81;5069817;28;20146;-41
2022/07/25 03:01:57;;;;;;;16.05;10.93;;;;;;;20.36;68.87;93498.31;5069622;28;20029;-42
2022/07/25 03:04:22;;;;;;;16.15;11.45;;;;;;;20.14;69.33;93508.16;5069541;28;20142;-42
2022/07/25 03:06:48;;;;;;;12.40;11.20;;;;;;;20.25;69.17;93495.50;5069686;28;20040;-42
2022/07/25 03:09:13;;;;;;;13.55;11.48;;;;;;;20.19;69.26;93501.47;5069293;28;20040;-42
2022/07/25 03:11:39;;;;;;;12.85;10.77;;;;;;;20.19;68.75;93509.16;5069589;28;20107;-42
2022/07/25 03:14:06;;;;;;;12.90;10.07;;;;;;;20.12;69.30;93510.16;5069619;28;20024;-40
2022/07/25 03:16:32;;;;;;;13.38;11.98;;;;;;;20.09;69.27;93505.75;5069669;28;20035;-39
2022/07/25 03:18:57;;;;;;;16.55;12.00;;;;;;;20.00;69.96;93503.81;5072685;28;20032;-40
2022/07/25 03:21:23;;;;;;;13.55;10.52;;;;;;;19.98;69.55;93510.03;5073390;28;20031;-41
2022/07/25 03:23:49;;;;;;;14.27;11.45;;;;;;;20.03;69.39;93502.59;5073269;28;20056;-40
2022/07/25 03:26:14;;;;;;;13.57;12.18;;;;;;;19.82;69.96;93499.88;5073642;28;20024;-40
2022/07/25 03:28:40;;;;;;;12.52;11.13;;;;;;;19.98;69.84;93514.91;5073752;28;20418;-40
2022/07/25 03:31:05;;;;;;;12.00;10.82;;;;;;;20.11;68.95;93506.59;5073237;28;20031;-41
2022/07/25 03:33:31;;;;;;;16.85;12.68;;;;;;;20.04;69.49;93506.84;5073555;28;20171;-41
2022/07/25 03:35:56;;;;;;;14.30;12.65;;;;;;;20.11;68.84;93489.78;5073416;28;20028;-40
2022/07/25 03:38:23;;;;;;;13.60;10.57;;;;;;;20.20;68.50;93510.63;5073080;28;20504;-40
2022/07/25 03:40:49;;;;;;;13.52;11.43;;;;;;;20.11;68.71;93509.41;5073393;28;20025;-40
2022/07/25 03:43:14;;;;;;;12.10;10.63;;;;;;;20.10;68.85;93518.41;5072593;28;20060;-39
2022/07/25 03:45:40;;;;;;;14.82;11.90;;;;;;;20.08;68.92;93509.88;5072801;28;20095;-40
2022/07/25 03:48:05;;;;;;;13.90;10.82;;;;;;;20.06;68.80;93509.75;5072875;28;20028;-40
2022/07/25 03:50:31;;;;;;;14.40;11.18;;;;;;;19.97;69.13;93511.34;5072863;28;20108;-40
2022/07/25 03:52:56;;;;;;;12.32;10.52;;;;;;;19.81;69.88;93518.78;5073083;28;20051;-40
2022/07/25 03:55:22;;;;;;;14.65;10.82;;;;;;;19.91;69.57;93515.84;5072985;28;20024;-40
2022/07/25 03:57:47;;;;;;;13.27;11.75;;;;;;;19.96;69.25;93507.09;5072243;28;20039;-40
2022/07/25 04:00:13;;;;;;;17.67;12.32;;;;;;;20.05;68.97;93506.25;5071700;28;20029;-40
2022/07/25 04:02:38;;;;;;;13.80;11.32;;;;;;;19.94;69.44;93514.66;5071504;28;20446;-39
2022/07/25 04:05:05;;;;;;;15.18;11.82;;;;;;;20.10;69.10;93513.53;5072550;28;20044;-40
2022/07/25 04:07:31;;;;;;;24.65;11.93;;;;;;;20.02;69.31;93515.88;5072806;28;20055;-40
2022/07/25 04:09:56;;;;;;;17.27;11.75;;;;;;;19.89;70.39;93512.94;5072397;28;20035;-40
2022/07/25 04:12:22;;;;;;;18.27;12.55;;;;;;;19.80;70.61;93510.97;5071339;28;20052;-40
2022/07/25 04:14:47;;;;;;;14.25;11.18;;;;;;;19.75;70.21;93506.50;5070579;28;20021;-40
2022/07/25 04:17:13;;;;;;;13.88;11.48;;;;;;;19.66;70.73;93508.06;5070611;28;20036;-40
2022/07/25 04:19:39;;;;;;;17.00;10.80;;;;;;;19.35;71.61;93468.31;5070958;28;20078;-39
2022/07/25 04:22:04;;;;;;;14.38;11.43;;;;;;;19.65;70.77;93510.13;5071189;28;20517;-40
2022/07/25 04:24:30;;;;;;;13.63;11.40;;;;;;;19.55;71.69;93508.78;5071736;28;20056;-41
2022/07/25 04:26:55;;;;;;;17.40;11.88;;;;;;;19.59;71.22;93501.34;5071814;28;20044;-40
2022/07/25 04:29:21;;;;;;;15.65;10.90;;;;;;;19.70;70.57;93507.56;5071223;28;20028;-40
2022/07/25 04:31:46;;;;;;;13.00;9.77;;;;;;;19.74;70.67;93505.00;5072083;28;20025;-39
2022/07/25 04:34:12;;;;;;;10.95;9.85;;;;;;;19.66;70.94;93517.19;5072284;28;20103;-40
2022/07/25 04:36:37;;;;;;;15.77;10.05;;;;;;;19.73;70.85;93515.47;5072343;28;20029;-40
2022/07/25 04:39:03;;;;;;;13.02;10.48;;;;;;;19.60;71.21;93511.22;5072256;28;20036;-41
2022/07/25 04:41:28;;;;;;;10.95;9.10;;;;;;;19.77;70.68;93510.16;5071997;28;20528;-40
2022/07/25 04:43:54;;;;;;;19.90;11.20;;;;;;;19.88;70.84;93517.09;5072110;28;20033;-40
2022/07/25 04:46:20;;;;;;;10.40;9.30;;;;;;;19.98;69.48;93515.63;5071879;28;20028;-40
2022/07/25 04:48:46;;;;;;;11.32;9.55;;;;;;;19.88;70.45;93511.50;5071774;28;20055;-40
2022/07/25 04:51:12;;;;;;;10.85;9.70;;;;;;;19.98;70.32;93520.50;5072089;28;20035;-40
2022/07/25 04:53:37;;;;;;;11.27;9.68;;;;;;;19.98;70.41;93517.69;5071943;28;20505;-40
2022/07/25 04:56:04;;;;;;;12.57;10.77;;;;;;;20.08;69.28;93523.91;5071517;28;20024;-39
2022/07/25 04:58:30;;;;;;;16.73;10.80;;;;;;;20.06;69.76;93520.97;5071823;28;20032;-40
2022/07/25 05:00:56;;;;;;;11.93;10.63;;;;;;;19.95;70.37;93518.91;5071512;28;20704;-39
2022/07/25 05:03:22;;;;;;;12.85;11.45;;;;;;;20.10;70.42;93526.81;5071478;28;20032;-39
2022/07/25 05:05:47;;;;;;;16.58;11.15;;;;;;;20.30;70.67;93523.19;5071155;28;20264;-39
2022/07/25 05:08:13;;;;;;;16.02;11.00;;;;;;;20.42;69.50;93519.66;5070756;28;20067;-39
2022/07/25 05:22:40;;;;;;;14.10;11.15;;;;;;;21.19;68.29;93522.72;5128331;27;20615;-45
2022/07/25 05:25:07;;;;;;;13.45;10.73;;;;;;;21.10;68.64;93515.19;5127094;28;20122;-48
2022/07/25 05:27:32;;;;;;;18.77;10.38;;;;;;;21.06;68.60;93515.69;5128317;27;20022;-50
2022/07/25 05:29:57;;;;;;;11.85;10.43;;;;;;;21.13;68.91;93513.97;5128480;27;20015;-49
2022/07/25 05:32:23;;;;;;;11.75;10.55;;;;;;;21.19;69.08;93521.97;5128548;27;20492;-49
2022/07/25 05:34:48;;;;;;;15.18;12.45;;;;;;;21.20;70.04;93524.19;5128452;27;20379;-48
2022/07/25 05:37:14;;;;;;;24.52;12.57;;;;;;;21.35;71.50;93525.72;5128157;27;20023;-52
2022/07/25 05:39:40;;;;;;;14.60;11.27;;;;;;;21.49;70.70;93518.78;5128247;27;20023;-50
2022/07/25 05:42:06;;;;;;;15.40;12.63;;;;;;;21.63;70.49;93518.81;5128313;27;20024;-49
2022/07/25 05:44:32;;;;;;;11.98;10.75;;;;;;;21.79;69.37;93514.78;5118941;27;20377;-48
2022/07/25 05:46:57;;;;;;;11.85;10.10;;;;;;;21.99;65.83;93522.88;5107419;28;20030;-52
2022/07/25 05:49:23;;;;;;;9.65;8.60;;;;;;;22.19;63.88;93516.25;5107258;28;20107;-48
2022/07/25 05:51:48;;;;;;;14.77;10.02;;;;;;;22.12;63.02;93522.16;5107648;28;20032;-49
2022/07/25 05:54:14;;;;;;;10.35;9.23;;;;;;;22.21;63.82;93521.97;5110317;28;20050;-47
2022/07/25 05:56:39;;;;;;;30.48;11.38;;;;;;;22.37;64.45;93519.97;5128066;27;20027;-45
2022/07/25 05:59:04;;;;;;;10.80;9.70;;;;;;;22.46;64.57;93521.84;5127746;27;20030;-46
2022/07/25 06:13:51;;;;;;;10.82;8.80;;;;;;;23.46;58.04;93513.44;5127287;27;21201;-45
2022/07/25 06:16:16;;;;;;;10.02;8.52;;;;;;;23.45;57.14;93517.63;5128449;27;20123;-45
2022/07/25 06:18:42;;;;;;;10.35;8.63;;;;;;;23.42;58.41;93508.34;5115966;27;20041;-45
2022/07/25 06:21:07;;;;;;;9.63;8.63;;;;;;;23.31;57.94;93503.56;5106876;28;20026;-48
2022/07/25 06:23:32;;;;;;;11.05;8.05;;;;;;;23.42;56.34;93516.06;5108027;28;20034;-45
2022/07/25 06:25:58;;;;;;;8.75;7.82;;;;;;;23.37;57.30;93509.50;5107950;28;20401;-47
2022/07/25 06:28:23;;;;;;;11.27;8.38;;;;;;;23.31;58.44;93514.81;5107710;28;20020;-50
2022/07/25 06:30:49;;;;;;;10.63;9.00;;;;;;;23.28;58.55;93510.47;5107540;28;20030;-48
2022/07/25 06:33:14;;;;;;;13.05;8.73;;;;;;;23.34;57.00;93507.97;5106704;28;20019;-48
2022/07/25 06:35:40;;;;;;;8.98;8.07;;;;;;;23.39;57.03;93511.72;5107644;28;20645;-52
2022/07/25 06:38:05;;;;;;;11.00;8.77;;;;;;;23.43;58.10;93507.00;5107092;28;20385;-53
2022/07/25 06:40:31;;;;;;;11.45;8.20;;;;;;;23.54;57.60;93502.56;5107775;28;20024;-51
2022/07/25 06:42:56;;;;;;;67.75;13.20;;;;;;;23.62;57.08;93503.66;5107297;28;20023;-51
2022/07/25 06:45:22;;;;;;;10.23;8.70;;;;;;;23.63;56.63;93498.75;5107364;28;20062;-46
2022/07/25 06:47:48;;;;;;;11.75;8.85;;;;;;;23.78;57.62;93495.94;5107612;28;20032;-48
2022/07/25 06:50:15;;;;;;;8.90;7.63;;;;;;;23.88;56.62;93498.50;5107486;28;20020;-49
2022/07/25 06:52:40;;;;;;;12.43;8.50;;;;;;;24.04;56.64;93496.41;5107513;28;20016;-45
2022/07/25 06:55:08;;;;;;;10.20;8.55;;;;;;;23.95;56.96;93492.47;5107184;28;20020;-45
2022/07/25 06:57:33;;;;;;;9.48;8.48;;;;;;;23.85;56.49;93483.56;5107483;28;20020;-48
2022/07/25 06:59:59;;;;;;;12.00;9.07;;;;;;;23.97;56.77;93489.75;5107070;28;20027;-46
2022/07/25 07:02:25;;;;;;;9.27;8.32;;;;;;;24.02;55.00;93493.50;5107259;28;20031;-46
2022/07/25 07:04:50;;;;;;;8.50;7.57;;;;;;;24.00;54.25;93479.28;5097155;28;20020;-45
2022/07/25 07:07:16;;;;;;;11.02;7.70;;;;;;;24.17;55.41;93489.25;5086941;28;20067;-48
2022/07/25 07:09:43;;;;;;;10.75;8.00;;;;;;;24.34;54.75;93488.59;5086891;28;20493;-48
2022/07/25 07:12:09;;;;;;;9.57;7.82;;;;;;;24.43;54.61;93488.28;5101679;28;20042;-49
2022/07/25 07:14:36;;;;;;;9.38;7.95;;;;;;;24.45;53.48;93487.66;5083468;28;20439;-47
2022/07/25 07:17:02;;;;;;;8.45;7.22;;;;;;;24.58;53.12;93481.88;5093125;28;20028;-47
2022/07/25 07:19:28;;;;;;;8.48;7.68;;;;;;;24.64;51.27;93484.25;5093451;28;20020;-49
2022/07/25 07:21:53;;;;;;;10.60;8.13;;;;;;;24.76;50.43;93481.97;5093008;28;20054;-48
2022/07/25 07:24:19;;;;;;;8.38;7.15;;;;;;;24.93;48.61;93486.19;5081107;28;20032;-47
2022/07/25 07:26:44;;;;;;;8.30;6.35;;;;;;;25.05;46.06;93484.59;5092927;28;20065;-47
2022/07/25 07:29:09;;;;;;;6.88;6.18;;;;;;;25.21;47.68;93479.59;5092904;28;20098;-47
2022/07/25 07:31:35;;;;;;;10.18;8.07;;;;;;;25.47;51.11;93468.63;5092884;28;20024;-49
2022/07/25 07:34:01;;;;;;;11.63;8.40;;;;;;;26.12;50.71;93481.03;5093879;28;20024;-49
2022/07/25 07:36:27;;;;;;;7.55;6.30;;;;;;;26.91;44.07;93484.59;5104789;28;20038;-49
2022/07/25 07:38:52;;;;;;;7.32;5.65;;;;;;;27.37;39.58;93487.53;5098271;28;20044;-48
2022/07/25 07:41:18;;;;;;;12.43;6.35;;;;;;;28.39;38.47;93490.69;5103635;28;20027;-49
2022/07/25 07:43:44;;;;;;;6.93;6.25;;;;;;;29.23;36.07;93491.56;5092316;28;20028;-47
2022/07/25 07:46:10;;;;;;;6.07;5.47;;;;;;;30.07;34.45;93483.59;5095575;28;20494;-48
2022/07/25 07:48:35;;;;;;;7.68;6.35;;;;;;;30.98;31.48;93492.66;5112981;28;20023;-46
2022/07/25 07:51:01;;;;;;;5.65;5.07;;;;;;;31.61;30.95;93482.34;5113198;28;20032;-46
2022/07/25 07:56:31;;;;;;;6.03;5.45;;;;;;;32.17;29.24;93480.34;5090061;28;20103;-55
2022/07/25 07:58:56;;;;;;;6.25;5.50;;;;;;;31.97;29.52;93492.22;5083689;28;20107;-44
2022/07/25 08:01:21;;;;;;;6.10;5.50;;;;;;;32.36;28.20;93487.03;5093948;28;20415;-46
2022/07/25 08:03:47;;;;;;;7.20;5.63;;;;;;;32.48;27.88;93490.81;5094434;27;20028;-53
2022/07/25 08:06:12;;;;;;;5.95;5.30;;;;;;;32.98;29.63;93489.97;5078083;28;20496;-44
2022/07/25 08:08:38;;;;;;;5.70;5.20;;;;;;;33.39;27.94;93492.56;5091214;28;20020;-44
2022/07/25 08:11:03;;;;;;;5.35;4.85;;;;;;;33.51;27.21;93491.97;5091454;28;20020;-45
2022/07/25 08:13:32;;;;;;;7.05;4.95;;;;;;;33.44;27.77;93496.19;5091679;28;20060;-45
2022/07/25 08:15:59;;;;;;;6.53;5.88;;;;;;;33.80;26.25;93487.94;5091758;28;20504;-47
2022/07/25 08:18:28;;;;;;;6.85;5.15;;;;;;;33.56;27.88;93493.44;5090180;28;20024;-47
2022/07/25 08:20:54;;;;;;;5.43;4.93;;;;;;;33.81;27.50;93486.50;5088671;28;20016;-44
2022/07/25 08:23:19;;;;;;;7.22;5.38;;;;;;;34.09;27.51;93492.44;5087205;28;20047;-42
2022/07/25 08:25:45;;;;;;;5.45;4.95;;;;;;;34.12;26.53;93478.84;5088151;28;20705;-43
2022/07/25 08:28:11;;;;;;;8.45;5.30;;;;;;;34.32;26.88;93478.97;5085992;28;20044;-44
2022/07/25 08:30:38;;;;;;;7.43;5.68;;;;;;;34.57;26.94;93485.56;5089166;28;20020;-45
2022/07/25 08:33:06;;;;;;;5.47;4.97;;;;;;;34.74;25.54;93481.38;5089723;28;20012;-44
2022/07/25 08:35:33;;;;;;;6.07;4.47;;;;;;;34.87;25.82;93494.31;5087799;28;20508;-45
2022/07/25 08:37:59;;;;;;;5.55;5.05;;;;;;;34.92;25.13;93487.16;5090280;28;20114;-43
2022/07/25 08:40:26;;;;;;;5.68;4.90;;;;;;;35.23;24.98;93490.84;5090188;28;20052;-44
2022/07/25 08:42:53;;;;;;;5.53;5.05;;;;;;;34.68;24.97;93493.53;5087293;28;20019;-45
2022/07/25 08:45:20;;;;;;;6.00;5.40;;;;;;;34.54;24.33;93489.88;5089951;28;20035;-46
2022/07/25 08:47:48;;;;;;;6.55;5.20;;;;;;;34.17;24.00;93497.53;5090372;28;20051;-44
2022/07/25 08:50:16;;;;;;;5.45;5.05;;;;;;;34.47;24.33;93483.38;5090238;28;20074;-47
2022/07/25 08:52:46;;;;;;;5.50;5.00;;;;;;;34.47;23.77;93480.50;5089818;28;20028;-46
2022/07/25 08:55:15;;;;;;;5.45;4.95;;;;;;;35.21;24.60;93491.56;5088640;28;20454;-43
2022/07/25 08:57:45;;;;;;;9.57;5.60;;;;;;;35.95;24.39;93484.47;5094372;28;20059;-43
2022/07/25 09:00:12;;;;;;;8.68;4.88;;;;;;;35.78;22.19;93487.34;5091206;28;20106;-45
2022/07/25 09:02:38;;;;;;;6.47;5.20;;;;;;;35.29;23.60;93488.72;5088695;28;20024;-43
2022/07/25 09:05:04;;;;;;;6.03;5.43;;;;;;;35.90;23.87;93486.63;5076526;28;20505;-43
2022/07/25 09:07:37;;;;;;;5.22;4.72;;;;;;;36.27;24.32;93472.97;5105565;28;20027;-44
2022/07/25 09:10:19;;;;;;;5.57;5.07;;;;;;;36.89;23.27;93483.59;5088976;28;20492;-43
2022/07/25 09:12:55;;;;;;;6.35;5.13;;;;;;;36.81;21.00;93480.72;5088942;28;20038;-42
2022/07/25 09:15:31;;;;;;;5.47;4.97;;;;;;;36.79;23.26;93478.59;5096407;28;20031;-44
2022/07/25 09:17:58;;;;;;;5.45;4.70;;;;;;;36.99;21.79;93484.25;5106870;28;20028;-44
2022/07/25 09:20:39;;;;;;;4.95;4.47;;;;;;;37.23;21.66;93487.00;5109595;28;20030;-44
2022/07/25 09:23:05;;;;;;;5.80;5.30;;;;;;;37.38;21.23;93479.06;5109197;28;20027;-45
2022/07/25 09:25:30;;;;;;;6.22;4.82;;;;;;;37.46;22.80;93478.25;5111086;27;20027;-46
2022/07/25 09:28:15;;;;;;;5.45;5.00;;;;;;;37.78;20.87;93478.75;5111090;28;20400;-46
2022/07/25 09:30:53;;;;;;;4.93;4.53;;;;;;;37.95;22.33;93479.34;5111376;28;20020;-45
2022/07/25 09:33:20;;;;;;;5.90;5.30;;;;;;;38.12;21.51;93480.63;5111380;28;20043;-44
2022/07/25 09:35:45;;;;;;;6.13;4.78;;;;;;;38.95;20.57;93477.63;5110882;28;20027;-46
2022/07/25 09:38:14;;;;;;;4.97;4.50;;;;;;;39.10;21.23;93470.22;5083928;28;20037;-47
2022/07/25 09:40:41;;;;;;;4.78;4.38;;;;;;;39.07;22.19;93476.75;5090172;28;20026;-44
2022/07/25 09:43:07;;;;;;;5.10;4.70;;;;;;;39.30;20.37;93480.81;5090448;28;20043;-44
2022/07/25 09:45:32;;;;;;;5.40;4.93;;;;;;;39.20;19.45;93478.06;5090489;28;20024;-44
2022/07/25 09:48:02;;;;;;;5.28;4.78;;;;;;;39.19;21.76;93474.47;5094580;28;20043;-44
2022/07/25 09:50:30;;;;;;;5.80;5.30;;;;;;;39.27;21.19;93471.44;5090385;28;20202;-44
2022/07/25 09:52:59;;;;;;;5.60;5.20;;;;;;;38.88;21.00;93469.78;5090372;28;20385;-43
2022/07/25 09:55:25;;;;;;;7.80;5.55;;;;;;;39.53;20.79;93467.47;5105609;28;20016;-48
2022/07/25 09:57:53;;;;;;;4.95;4.30;;;;;;;39.68;20.78;93468.69;5110694;28;20484;-45
2022/07/25 10:00:23;;;;;;;5.22;4.72;;;;;;;40.31;19.03;93464.78;5101024;28;20028;-45
2022/07/25 10:02:51;;;;;;;5.05;4.50;;;;;;;40.28;20.42;93467.00;5107770;28;20016;-46
2022/07/25 10:05:38;;;;;;;5.97;5.38;;;;;;;40.17;20.62;93459.97;5079837;28;20040;-47
2022/07/25 10:08:06;;;;;;;5.70;5.10;;;;;;;39.29;20.07;93467.81;5096657;28;20517;-45
2022/07/25 10:10:37;;;;;;;5.97;5.28;;;;;;;39.31;19.88;93462.72;5102805;28;20031;-47
2022/07/25 10:13:12;;;;;;;5.63;5.13;;;;;;;38.44;20.68;93468.81;5072883;28;20052;-47
2022/07/25 10:15:51;;;;;;;5.72;5.20;;;;;;;38.14;21.29;93462.63;5067878;28;20577;-46
2022/07/25 10:18:20;;;;;;;6.45;5.55;;;;;;;38.12;21.96;93459.75;5067616;28;20020;-45
2022/07/25 10:20:47;;;;;;;6.13;5.63;;;;;;;37.70;23.30;93452.88;5067522;28;20509;-45
2022/07/25 10:23:19;;;;;;;6.20;5.60;;;;;;;37.91;22.41;93456.31;5067454;28;20024;-47
2022/07/25 10:25:45;;;;;;;5.55;5.05;;;;;;;37.58;21.30;93460.88;5067259;28;20498;-46
2022/07/25 10:28:15;;;;;;;5.72;5.20;;;;;;;36.09;24.00;93455.72;5065893;28;20031;-45
2022/07/25 10:30:41;;;;;;;6.38;5.78;;;;;;;35.11;24.45;93467.88;5066480;28;20021;-47
2022/07/25 10:33:16;;;;;;;7.15;6.07;;;;;;;34.38;25.87;93450.34;5066586;28;20047;-45
2022/07/25 10:35:42;;;;;;;6.53;6.03;;;;;;;34.24;26.75;93453.16;5066319;28;20036;-45
2022/07/25 10:38:08;;;;;;;6.32;5.72;;;;;;;34.21;26.71;93446.69;5066071;28;20100;-45
2022/07/25 10:40:45;;;;;;;7.63;5.78;;;;;;;34.30;26.40;93448.16;5065779;28;20451;-49
2022/07/25 10:43:21;;;;;;;6.30;5.47;;;;;;;34.34;29.14;93445.31;5067530;28;20028;-46
2022/07/25 10:45:55;;;;;;;6.05;5.55;;;;;;;34.11;26.71;93440.88;5067343;28;20025;-48
2022/07/25 10:48:32;;;;;;;6.75;6.10;;;;;;;33.83;27.13;93439.97;5068278;28;20062;-45
2022/07/25 10:51:07;;;;;;;6.80;6.20;;;;;;;33.94;28.09;93438.63;5071323;28;20410;-47
2022/07/25 10:53:47;;;;;;;5.45;5.03;;;;;;;34.14;28.63;93436.59;5070823;28;20020;-47
2022/07/25 10:56:21;;;;;;;6.78;6.18;;;;;;;34.24;27.67;93433.09;5080646;28;20520;-44
2022/07/25 10:58:50;;;;;;;6.60;6.05;;;;;;;33.86;27.46;93427.09;5091772;28;20024;-44
2022/07/25 11:01:24;;;;;;;7.15;5.72;;;;;;;34.04;27.10;93424.38;5091267;28;20508;-45
2022/07/25 11:03:51;;;;;;;5.45;5.00;;;;;;;34.54;26.95;93418.19;5091302;28;20715;-44
2022/07/25 11:06:38;;;;;;;5.28;4.78;;;;;;;34.74;25.58;93421.81;5091534;28;20027;-44
2022/07/25 11:09:13;;;;;;;6.60;5.57;;;;;;;34.96;25.87;93415.44;5087475;28;20032;-44
2022/07/25 11:11:46;;;;;;;5.88;5.38;;;;;;;34.73;27.22;93399.59;5078665;28;20028;-46
2022/07/25 11:14:21;;;;;;;6.72;6.10;;;;;;;34.30;26.65;93419.50;5090588;28;20475;-46
2022/07/25 11:16:48;;;;;;;6.43;5.65;;;;;;;33.91;27.49;93417.09;5090734;28;20515;-47
2022/07/25 11:19:23;;;;;;;6.53;5.93;;;;;;;33.39;27.51;93421.00;5090667;28;20026;-45
2022/07/25 11:21:52;;;;;;;7.03;5.53;;;;;;;32.49;28.05;93417.19;5090762;28;20024;-46
2022/07/25 11:24:17;;;;;;;;;;;;;;;32.43;29.94;93419.97;5091445;28;20043;-45
2022/07/25 11:26:45;;;;;;;7.65;6.05;;;;;;;32.70;28.91;93416.03;5078396;28;19916;-47
2022/07/25 11:29:18;;;;;;;5.63;5.13;;;;;;;32.88;27.82;93416.94;5070689;28;20756;-49
2022/07/25 11:31:50;;;;;;;6.47;5.88;;;;;;;32.47;27.79;93412.19;5070649;28;20752;-46
2022/07/25 11:34:16;;;;;;;6.50;5.90;;;;;;;32.12;29.19;93413.88;5072069;28;20520;-46
2022/07/25 11:36:43;;;;;;;6.30;5.70;;;;;;;31.98;31.16;93412.97;5095149;28;20031;-49
2022/07/25 11:39:08;;;;;;;6.82;5.70;;;;;;;32.10;29.17;93398.84;5099091;28;20039;-46
2022/07/25 11:41:34;;;;;;;5.60;5.10;;;;;;;32.20;30.31;93404.69;5097125;28;20016;-44
2022/07/25 11:43:59;;;;;;;7.43;5.63;;;;;;;32.52;29.23;93398.66;5094303;28;20024;-45
2022/07/25 11:46:25;;;;;;;5.38;4.88;;;;;;;33.00;28.48;93395.63;5083245;28;20066;-52
2022/07/25 11:48:50;;;;;;;6.80;5.50;;;;;;;33.07;30.44;93397.81;5071344;28;20090;-46
2022/07/25 11:51:17;;;;;;;6.00;5.40;;;;;;;33.06;29.61;93399.25;5070435;28;20090;-48
2022/07/25 11:53:48;;;;;;;5.80;5.20;;;;;;;33.15;29.17;93386.47;5106664;28;20032;-47
2022/07/25 11:56:16;;;;;;;5.68;5.03;;;;;;;33.41;28.54;93392.41;5110522;28;20096;-47